sensor_id;sensor_type;location;lat;lon;timestamp;P1;durP1;ratioP1;P2;durP2;ratioP2
22881;SDS011;11608;50.894;5.296;2023-10-19T00:01:54;29.08;;;27.08;;
22881;SDS011;11608;50.894;5.296;2023-10-19T00:04:20;29.45;;;27.10;;
22881;SDS011;11608;50.894;5.296;2023-10-19T00:06:47;27.65;;;25.65;;
22881;SDS011;11608;50.894;5.296;2023-10-19T00:09:14;28.40;;;26.08;;
22881;SDS011;11608;50.894;5.296;2023-10-19T00:11:40;29.38;;;27.35;;
22881;SDS011;11608;50.894;5.296;2023-10-19T00:14:07;27.77;;;25.67;;
22881;SDS011;11608;50.894;5.296;2023-10-19T00:16:43;28.30;;;26.10;;
22881;SDS011;11608;50.894;5.296;2023-10-19T00:19:15;31.42;;;29.17;;
22881;SDS011;11608;50.894;5.296;2023-10-19T00:21:44;29.73;;;27.52;;
22881;SDS011;11608;50.894;5.296;2023-10-19T00:24:19;27.17;;;25.17;;
22881;SDS011;11608;50.894;5.296;2023-10-19T00:26:48;27.08;;;25.08;;
22881;SDS011;11608;50.894;5.296;2023-10-19T00:29:17;26.60;;;24.63;;
22881;SDS011;11608;50.894;5.296;2023-10-19T00:31:55;29.33;;;26.98;;
22881;SDS011;11608;50.894;5.296;2023-10-19T00:34:21;29.13;;;27.13;;
22881;SDS011;11608;50.894;5.296;2023-10-19T00:36:49;27.52;;;25.60;;
22881;SDS011;11608;50.894;5.296;2023-10-19T00:39:16;27.17;;;25.17;;
22881;SDS011;11608;50.894;5.296;2023-10-19T00:41:52;26.85;;;24.95;;
22881;SDS011;11608;50.894;5.296;2023-10-19T00:44:23;25.50;;;23.77;;
22881;SDS011;11608;50.894;5.296;2023-10-19T00:47:09;26.38;;;24.35;;
22881;SDS011;11608;50.894;5.296;2023-10-19T00:49:38;26.85;;;24.63;;
22881;SDS011;11608;50.894;5.296;2023-10-19T00:52:05;25.70;;;23.70;;
22881;SDS011;11608;50.894;5.296;2023-10-19T00:54:44;25.35;;;23.45;;
22881;SDS011;11608;50.894;5.296;2023-10-19T00:57:14;26.63;;;24.73;;
22881;SDS011;11608;50.894;5.296;2023-10-19T00:59:44;25.33;;;23.55;;
22881;SDS011;11608;50.894;5.296;2023-10-19T01:02:16;26.77;;;24.88;;
22881;SDS011;11608;50.894;5.296;2023-10-19T01:04:43;27.50;;;25.38;;
22881;SDS011;11608;50.894;5.296;2023-10-19T01:07:11;26.13;;;24.20;;
22881;SDS011;11608;50.894;5.296;2023-10-19T01:09:41;25.73;;;23.77;;
22881;SDS011;11608;50.894;5.296;2023-10-19T01:12:09;25.45;;;23.55;;
22881;SDS011;11608;50.894;5.296;2023-10-19T01:15:06;26.35;;;24.05;;
22881;SDS011;11608;50.894;5.296;2023-10-19T01:17:35;27.35;;;25.33;;
22881;SDS011;11608;50.894;5.296;2023-10-19T01:20:08;25.05;;;23.30;;
22881;SDS011;11608;50.894;5.296;2023-10-19T01:25:41;26.20;;;24.05;;
22881;SDS011;11608;50.894;5.296;2023-10-19T01:28:14;26.83;;;24.60;;
22881;SDS011;11608;50.894;5.296;2023-10-19T01:30:43;25.60;;;23.50;;
22881;SDS011;11608;50.894;5.296;2023-10-19T01:33:10;24.90;;;23.17;;
22881;SDS011;11608;50.894;5.296;2023-10-19T01:35:40;24.73;;;22.92;;
22881;SDS011;11608;50.894;5.296;2023-10-19T01:38:25;24.60;;;22.75;;
22881;SDS011;11608;50.894;5.296;2023-10-19T01:40:55;25.92;;;23.88;;
22881;SDS011;11608;50.894;5.296;2023-10-19T01:43:24;26.38;;;24.38;;
22881;SDS011;11608;50.894;5.296;2023-10-19T01:45:53;24.63;;;22.67;;
22881;SDS011;11608;50.894;5.296;2023-10-19T01:48:20;24.33;;;22.70;;
22881;SDS011;11608;50.894;5.296;2023-10-19T01:50:52;24.77;;;22.58;;
22881;SDS011;11608;50.894;5.296;2023-10-19T01:53:18;25.45;;;23.75;;
22881;SDS011;11608;50.894;5.296;2023-10-19T01:55:50;24.08;;;22.33;;
22881;SDS011;11608;50.894;5.296;2023-10-19T01:58:23;25.10;;;23.17;;
22881;SDS011;11608;50.894;5.296;2023-10-19T02:00:50;25.50;;;23.80;;
22881;SDS011;11608;50.894;5.296;2023-10-19T02:03:20;26.13;;;24.23;;
22881;SDS011;11608;50.894;5.296;2023-10-19T02:05:48;24.13;;;22.42;;
22881;SDS011;11608;50.894;5.296;2023-10-19T02:08:15;24.55;;;22.45;;
22881;SDS011;11608;50.894;5.296;2023-10-19T02:10:46;23.98;;;22.20;;
22881;SDS011;11608;50.894;5.296;2023-10-19T02:13:12;24.23;;;22.27;;
22881;SDS011;11608;50.894;5.296;2023-10-19T02:15:42;25.15;;;23.25;;
22881;SDS011;11608;50.894;5.296;2023-10-19T02:18:08;25.83;;;23.88;;
22881;SDS011;11608;50.894;5.296;2023-10-19T02:20:36;23.75;;;21.95;;
22881;SDS011;11608;50.894;5.296;2023-10-19T02:23:06;24.83;;;22.95;;
22881;SDS011;11608;50.894;5.296;2023-10-19T02:25:33;24.88;;;23.15;;
22881;SDS011;11608;50.894;5.296;2023-10-19T02:28:05;24.55;;;22.75;;
22881;SDS011;11608;50.894;5.296;2023-10-19T02:30:32;24.45;;;22.55;;
22881;SDS011;11608;50.894;5.296;2023-10-19T02:33:03;26.00;;;24.10;;
22881;SDS011;11608;50.894;5.296;2023-10-19T02:35:31;26.60;;;24.63;;
22881;SDS011;11608;50.894;5.296;2023-10-19T02:37:57;25.50;;;23.48;;
22881;SDS011;11608;50.894;5.296;2023-10-19T02:40:23;23.60;;;21.75;;
22881;SDS011;11608;50.894;5.296;2023-10-19T02:42:50;23.50;;;21.80;;
22881;SDS011;11608;50.894;5.296;2023-10-19T02:45:18;23.02;;;21.33;;
22881;SDS011;11608;50.894;5.296;2023-10-19T02:47:44;25.90;;;23.92;;
22881;SDS011;11608;50.894;5.296;2023-10-19T02:50:11;23.98;;;22.13;;
22881;SDS011;11608;50.894;5.296;2023-10-19T02:52:47;24.85;;;23.15;;
22881;SDS011;11608;50.894;5.296;2023-10-19T02:55:13;23.90;;;22.20;;
22881;SDS011;11608;50.894;5.296;2023-10-19T02:57:41;22.92;;;21.10;;
22881;SDS011;11608;50.894;5.296;2023-10-19T03:00:11;23.48;;;21.70;;
22881;SDS011;11608;50.894;5.296;2023-10-19T03:02:39;23.30;;;21.55;;
22881;SDS011;11608;50.894;5.296;2023-10-19T03:05:05;24.52;;;22.50;;
22881;SDS011;11608;50.894;5.296;2023-10-19T03:07:42;23.60;;;21.75;;
22881;SDS011;11608;50.894;5.296;2023-10-19T03:10:09;23.67;;;21.88;;
22881;SDS011;11608;50.894;5.296;2023-10-19T03:12:54;23.75;;;21.92;;
22881;SDS011;11608;50.894;5.296;2023-10-19T03:15:22;24.40;;;22.63;;
22881;SDS011;11608;50.894;5.296;2023-10-19T03:17:48;24.30;;;22.27;;
22881;SDS011;11608;50.894;5.296;2023-10-19T03:20:14;26.35;;;24.10;;
22881;SDS011;11608;50.894;5.296;2023-10-19T03:22:43;23.65;;;21.92;;
22881;SDS011;11608;50.894;5.296;2023-10-19T03:25:11;23.77;;;22.00;;
22881;SDS011;11608;50.894;5.296;2023-10-19T03:27:56;24.95;;;23.10;;
22881;SDS011;11608;50.894;5.296;2023-10-19T03:30:22;23.88;;;22.00;;
22881;SDS011;11608;50.894;5.296;2023-10-19T03:32:50;23.55;;;21.85;;
22881;SDS011;11608;50.894;5.296;2023-10-19T03:35:16;23.85;;;21.88;;
22881;SDS011;11608;50.894;5.296;2023-10-19T03:37:42;23.40;;;21.35;;
22881;SDS011;11608;50.894;5.296;2023-10-19T03:40:12;23.45;;;21.65;;
22881;SDS011;11608;50.894;5.296;2023-10-19T03:42:45;24.50;;;22.80;;
22881;SDS011;11608;50.894;5.296;2023-10-19T03:45:12;23.13;;;21.23;;
22881;SDS011;11608;50.894;5.296;2023-10-19T03:47:38;23.17;;;21.27;;
22881;SDS011;11608;50.894;5.296;2023-10-19T03:50:05;23.58;;;21.63;;
22881;SDS011;11608;50.894;5.296;2023-10-19T03:52:39;25.70;;;23.58;;
22881;SDS011;11608;50.894;5.296;2023-10-19T03:55:05;26.00;;;24.30;;
22881;SDS011;11608;50.894;5.296;2023-10-19T03:57:43;25.08;;;23.17;;
22881;SDS011;11608;50.894;5.296;2023-10-19T04:00:17;25.80;;;23.45;;
22881;SDS011;11608;50.894;5.296;2023-10-19T04:02:44;25.83;;;23.77;;
22881;SDS011;11608;50.894;5.296;2023-10-19T04:05:11;26.92;;;24.75;;
22881;SDS011;11608;50.894;5.296;2023-10-19T04:07:45;27.13;;;25.08;;
22881;SDS011;11608;50.894;5.296;2023-10-19T04:10:11;25.42;;;23.33;;
22881;SDS011;11608;50.894;5.296;2023-10-19T04:12:54;25.20;;;23.45;;
22881;SDS011;11608;50.894;5.296;2023-10-19T04:15:20;25.40;;;23.20;;
22881;SDS011;11608;50.894;5.296;2023-10-19T04:17:47;26.05;;;23.77;;
22881;SDS011;11608;50.894;5.296;2023-10-19T04:20:14;26.10;;;24.00;;
22881;SDS011;11608;50.894;5.296;2023-10-19T04:22:47;25.45;;;23.35;;
22881;SDS011;11608;50.894;5.296;2023-10-19T04:25:14;25.52;;;23.20;;
22881;SDS011;11608;50.894;5.296;2023-10-19T04:27:43;25.15;;;23.15;;
22881;SDS011;11608;50.894;5.296;2023-10-19T04:30:10;25.58;;;23.27;;
22881;SDS011;11608;50.894;5.296;2023-10-19T04:32:49;26.60;;;24.42;;
22881;SDS011;11608;50.894;5.296;2023-10-19T04:35:16;27.45;;;25.30;;
22881;SDS011;11608;50.894;5.296;2023-10-19T04:37:55;25.02;;;23.05;;
22881;SDS011;11608;50.894;5.296;2023-10-19T04:40:22;25.45;;;23.05;;
22881;SDS011;11608;50.894;5.296;2023-10-19T04:42:50;24.92;;;22.90;;
22881;SDS011;11608;50.894;5.296;2023-10-19T04:45:16;24.92;;;22.73;;
22881;SDS011;11608;50.894;5.296;2023-10-19T04:47:42;25.38;;;23.38;;
22881;SDS011;11608;50.894;5.296;2023-10-19T04:50:08;25.40;;;23.70;;
22881;SDS011;11608;50.894;5.296;2023-10-19T04:52:38;25.65;;;23.42;;
22881;SDS011;11608;50.894;5.296;2023-10-19T04:55:04;25.30;;;23.20;;
22881;SDS011;11608;50.894;5.296;2023-10-19T04:57:31;25.75;;;23.60;;
22881;SDS011;11608;50.894;5.296;2023-10-19T04:59:57;26.52;;;24.38;;
22881;SDS011;11608;50.894;5.296;2023-10-19T05:02:23;25.95;;;23.95;;
22881;SDS011;11608;50.894;5.296;2023-10-19T05:04:49;26.00;;;23.73;;
22881;SDS011;11608;50.894;5.296;2023-10-19T05:07:15;26.85;;;24.75;;
22881;SDS011;11608;50.894;5.296;2023-10-19T05:09:42;26.75;;;24.65;;
22881;SDS011;11608;50.894;5.296;2023-10-19T05:12:08;26.00;;;23.92;;
22881;SDS011;11608;50.894;5.296;2023-10-19T05:14:38;26.20;;;23.73;;
22881;SDS011;11608;50.894;5.296;2023-10-19T05:17:05;25.33;;;22.75;;
22881;SDS011;11608;50.894;5.296;2023-10-19T05:19:37;26.05;;;23.67;;
22881;SDS011;11608;50.894;5.296;2023-10-19T05:22:07;27.48;;;25.25;;
22881;SDS011;11608;50.894;5.296;2023-10-19T05:24:34;27.45;;;25.50;;
22881;SDS011;11608;50.894;5.296;2023-10-19T05:27:00;26.80;;;24.77;;
22881;SDS011;11608;50.894;5.296;2023-10-19T05:29:26;25.98;;;23.55;;
22881;SDS011;11608;50.894;5.296;2023-10-19T05:31:53;26.65;;;24.30;;
22881;SDS011;11608;50.894;5.296;2023-10-19T05:34:20;25.65;;;23.60;;
22881;SDS011;11608;50.894;5.296;2023-10-19T05:36:46;27.33;;;25.23;;
22881;SDS011;11608;50.894;5.296;2023-10-19T05:39:14;26.77;;;24.60;;
22881;SDS011;11608;50.894;5.296;2023-10-19T05:41:40;26.92;;;24.52;;
22881;SDS011;11608;50.894;5.296;2023-10-19T05:44:06;28.35;;;25.92;;
22881;SDS011;11608;50.894;5.296;2023-10-19T05:46:32;25.65;;;23.65;;
22881;SDS011;11608;50.894;5.296;2023-10-19T05:48:58;26.08;;;23.55;;
22881;SDS011;11608;50.894;5.296;2023-10-19T05:51:26;26.48;;;23.88;;
22881;SDS011;11608;50.894;5.296;2023-10-19T05:53:52;25.70;;;23.40;;
22881;SDS011;11608;50.894;5.296;2023-10-19T05:56:26;26.73;;;24.38;;
22881;SDS011;11608;50.894;5.296;2023-10-19T05:58:52;25.55;;;23.50;;
22881;SDS011;11608;50.894;5.296;2023-10-19T06:01:19;27.73;;;24.88;;
22881;SDS011;11608;50.894;5.296;2023-10-19T06:03:45;26.13;;;24.05;;
22881;SDS011;11608;50.894;5.296;2023-10-19T06:06:11;25.73;;;23.63;;
22881;SDS011;11608;50.894;5.296;2023-10-19T06:08:37;26.00;;;24.08;;
22881;SDS011;11608;50.894;5.296;2023-10-19T06:11:03;26.45;;;24.35;;
22881;SDS011;11608;50.894;5.296;2023-10-19T06:13:29;27.27;;;24.95;;
22881;SDS011;11608;50.894;5.296;2023-10-19T06:15:56;26.10;;;23.95;;
22881;SDS011;11608;50.894;5.296;2023-10-19T06:18:22;27.90;;;25.88;;
22881;SDS011;11608;50.894;5.296;2023-10-19T06:20:49;25.38;;;23.15;;
22881;SDS011;11608;50.894;5.296;2023-10-19T06:23:16;24.80;;;22.77;;
22881;SDS011;11608;50.894;5.296;2023-10-19T06:25:43;25.35;;;23.33;;
22881;SDS011;11608;50.894;5.296;2023-10-19T06:28:09;25.10;;;23.20;;
22881;SDS011;11608;50.894;5.296;2023-10-19T06:30:38;25.52;;;23.48;;
22881;SDS011;11608;50.894;5.296;2023-10-19T06:33:07;24.48;;;22.42;;
22881;SDS011;11608;50.894;5.296;2023-10-19T06:35:33;24.25;;;22.35;;
22881;SDS011;11608;50.894;5.296;2023-10-19T06:38:02;23.77;;;21.77;;
22881;SDS011;11608;50.894;5.296;2023-10-19T06:40:34;23.48;;;21.75;;
22881;SDS011;11608;50.894;5.296;2023-10-19T06:43:03;23.25;;;21.33;;
22881;SDS011;11608;50.894;5.296;2023-10-19T06:45:32;23.67;;;21.88;;
22881;SDS011;11608;50.894;5.296;2023-10-19T06:47:58;24.10;;;21.92;;
22881;SDS011;11608;50.894;5.296;2023-10-19T06:50:25;23.45;;;21.38;;
22881;SDS011;11608;50.894;5.296;2023-10-19T06:52:51;23.80;;;21.80;;
22881;SDS011;11608;50.894;5.296;2023-10-19T06:55:19;25.48;;;23.10;;
22881;SDS011;11608;50.894;5.296;2023-10-19T06:57:54;24.60;;;22.63;;
22881;SDS011;11608;50.894;5.296;2023-10-19T07:00:21;25.95;;;23.67;;
22881;SDS011;11608;50.894;5.296;2023-10-19T07:02:49;25.45;;;23.10;;
22881;SDS011;11608;50.894;5.296;2023-10-19T07:05:16;25.13;;;22.67;;
22881;SDS011;11608;50.894;5.296;2023-10-19T07:08:00;24.45;;;22.55;;
22881;SDS011;11608;50.894;5.296;2023-10-19T07:10:27;24.65;;;22.20;;
22881;SDS011;11608;50.894;5.296;2023-10-19T07:12:54;24.55;;;22.35;;
22881;SDS011;11608;50.894;5.296;2023-10-19T07:15:23;25.13;;;22.92;;
22881;SDS011;11608;50.894;5.296;2023-10-19T07:17:50;25.10;;;22.88;;
22881;SDS011;11608;50.894;5.296;2023-10-19T07:20:17;25.55;;;22.98;;
22881;SDS011;11608;50.894;5.296;2023-10-19T07:22:50;25.58;;;23.00;;
22881;SDS011;11608;50.894;5.296;2023-10-19T07:25:17;26.58;;;23.88;;
22881;SDS011;11608;50.894;5.296;2023-10-19T07:27:46;25.63;;;23.23;;
22881;SDS011;11608;50.894;5.296;2023-10-19T07:30:12;25.30;;;22.58;;
22881;SDS011;11608;50.894;5.296;2023-10-19T07:32:40;24.23;;;21.80;;
22881;SDS011;11608;50.894;5.296;2023-10-19T07:35:07;24.15;;;21.75;;
22881;SDS011;11608;50.894;5.296;2023-10-19T07:37:34;22.83;;;20.55;;
22881;SDS011;11608;50.894;5.296;2023-10-19T07:40:00;22.63;;;20.42;;
22881;SDS011;11608;50.894;5.296;2023-10-19T07:42:26;23.73;;;21.45;;
22881;SDS011;11608;50.894;5.296;2023-10-19T07:44:52;23.00;;;20.95;;
22881;SDS011;11608;50.894;5.296;2023-10-19T07:47:21;22.00;;;19.92;;
22881;SDS011;11608;50.894;5.296;2023-10-19T07:49:48;22.98;;;20.75;;
22881;SDS011;11608;50.894;5.296;2023-10-19T07:52:17;22.25;;;20.15;;
22881;SDS011;11608;50.894;5.296;2023-10-19T07:54:43;22.45;;;20.10;;
22881;SDS011;11608;50.894;5.296;2023-10-19T07:57:10;23.25;;;20.98;;
22881;SDS011;11608;50.894;5.296;2023-10-19T07:59:37;23.38;;;21.17;;
22881;SDS011;11608;50.894;5.296;2023-10-19T08:02:03;22.98;;;20.42;;
22881;SDS011;11608;50.894;5.296;2023-10-19T08:04:30;23.08;;;20.80;;
22881;SDS011;11608;50.894;5.296;2023-10-19T08:06:58;22.65;;;20.35;;
22881;SDS011;11608;50.894;5.296;2023-10-19T08:09:25;22.58;;;20.33;;
22881;SDS011;11608;50.894;5.296;2023-10-19T08:11:57;21.83;;;19.83;;
22881;SDS011;11608;50.894;5.296;2023-10-19T08:14:27;23.13;;;20.83;;
22881;SDS011;11608;50.894;5.296;2023-10-19T08:16:53;25.85;;;20.70;;
22881;SDS011;11608;50.894;5.296;2023-10-19T08:19:19;22.30;;;19.80;;
22881;SDS011;11608;50.894;5.296;2023-10-19T08:21:45;21.85;;;19.65;;
22881;SDS011;11608;50.894;5.296;2023-10-19T08:24:12;22.92;;;20.25;;
22881;SDS011;11608;50.894;5.296;2023-10-19T08:26:43;24.58;;;19.75;;
22881;SDS011;11608;50.894;5.296;2023-10-19T08:29:10;22.45;;;20.38;;
22881;SDS011;11608;50.894;5.296;2023-10-19T08:31:39;23.25;;;20.67;;
22881;SDS011;11608;50.894;5.296;2023-10-19T08:34:06;23.05;;;20.60;;
22881;SDS011;11608;50.894;5.296;2023-10-19T08:36:34;24.42;;;20.88;;
22881;SDS011;11608;50.894;5.296;2023-10-19T08:39:01;22.77;;;20.42;;
22881;SDS011;11608;50.894;5.296;2023-10-19T08:41:31;28.35;;;21.00;;
22881;SDS011;11608;50.894;5.296;2023-10-19T08:43:57;23.70;;;21.35;;
22881;SDS011;11608;50.894;5.296;2023-10-19T08:46:24;25.60;;;21.23;;
22881;SDS011;11608;50.894;5.296;2023-10-19T08:48:53;27.15;;;21.50;;
22881;SDS011;11608;50.894;5.296;2023-10-19T08:51:19;23.60;;;21.30;;
22881;SDS011;11608;50.894;5.296;2023-10-19T08:53:45;22.95;;;20.35;;
22881;SDS011;11608;50.894;5.296;2023-10-19T08:56:11;23.45;;;20.88;;
22881;SDS011;11608;50.894;5.296;2023-10-19T08:58:37;23.00;;;20.27;;
22881;SDS011;11608;50.894;5.296;2023-10-19T09:01:04;24.00;;;20.90;;
22881;SDS011;11608;50.894;5.296;2023-10-19T09:03:35;23.92;;;21.42;;
22881;SDS011;11608;50.894;5.296;2023-10-19T09:06:01;24.13;;;21.05;;
22881;SDS011;11608;50.894;5.296;2023-10-19T09:08:27;23.98;;;21.60;;
22881;SDS011;11608;50.894;5.296;2023-10-19T09:11:09;24.17;;;21.20;;
22881;SDS011;11608;50.894;5.296;2023-10-19T09:13:45;23.52;;;21.13;;
22881;SDS011;11608;50.894;5.296;2023-10-19T09:16:21;26.88;;;21.25;;
22881;SDS011;11608;50.894;5.296;2023-10-19T09:18:49;22.70;;;20.40;;
22881;SDS011;11608;50.894;5.296;2023-10-19T09:21:15;23.17;;;20.90;;
22881;SDS011;11608;50.894;5.296;2023-10-19T09:23:54;24.75;;;22.20;;
22881;SDS011;11608;50.894;5.296;2023-10-19T09:26:21;22.85;;;20.45;;
22881;SDS011;11608;50.894;5.296;2023-10-19T09:28:48;22.67;;;20.58;;
22881;SDS011;11608;50.894;5.296;2023-10-19T09:31:14;23.40;;;21.00;;
22881;SDS011;11608;50.894;5.296;2023-10-19T09:33:41;23.70;;;21.30;;
22881;SDS011;11608;50.894;5.296;2023-10-19T09:36:09;22.77;;;20.55;;
22881;SDS011;11608;50.894;5.296;2023-10-19T09:38:39;23.25;;;21.05;;
22881;SDS011;11608;50.894;5.296;2023-10-19T09:41:07;23.85;;;21.35;;
22881;SDS011;11608;50.894;5.296;2023-10-19T09:43:34;24.30;;;21.77;;
22881;SDS011;11608;50.894;5.296;2023-10-19T09:46:05;24.02;;;21.38;;
22881;SDS011;11608;50.894;5.296;2023-10-19T09:48:32;23.35;;;21.13;;
22881;SDS011;11608;50.894;5.296;2023-10-19T09:51:01;26.92;;;22.27;;
22881;SDS011;11608;50.894;5.296;2023-10-19T09:53:28;24.83;;;21.90;;
22881;SDS011;11608;50.894;5.296;2023-10-19T09:55:59;23.73;;;21.25;;
22881;SDS011;11608;50.894;5.296;2023-10-19T09:58:27;23.58;;;21.20;;
22881;SDS011;11608;50.894;5.296;2023-10-19T10:00:54;24.33;;;21.33;;
22881;SDS011;11608;50.894;5.296;2023-10-19T10:06:07;22.20;;;19.63;;
22881;SDS011;11608;50.894;5.296;2023-10-19T10:08:33;23.05;;;20.73;;
22881;SDS011;11608;50.894;5.296;2023-10-19T10:11:15;23.80;;;21.20;;
22881;SDS011;11608;50.894;5.296;2023-10-19T10:13:42;23.00;;;20.60;;
22881;SDS011;11608;50.894;5.296;2023-10-19T10:16:11;24.00;;;20.70;;
22881;SDS011;11608;50.894;5.296;2023-10-19T10:18:38;22.30;;;20.25;;
22881;SDS011;11608;50.894;5.296;2023-10-19T10:23:49;23.70;;;21.20;;
22881;SDS011;11608;50.894;5.296;2023-10-19T10:26:16;22.38;;;20.17;;
22881;SDS011;11608;50.894;5.296;2023-10-19T10:28:46;23.27;;;20.10;;
22881;SDS011;11608;50.894;5.296;2023-10-19T10:33:40;24.83;;;22.13;;
22881;SDS011;11608;50.894;5.296;2023-10-19T10:36:06;23.67;;;21.27;;
22881;SDS011;11608;50.894;5.296;2023-10-19T10:38:33;23.90;;;21.58;;
22881;SDS011;11608;50.894;5.296;2023-10-19T10:41:00;23.80;;;21.27;;
22881;SDS011;11608;50.894;5.296;2023-10-19T10:43:27;23.27;;;20.83;;
22881;SDS011;11608;50.894;5.296;2023-10-19T10:46:02;23.05;;;20.88;;
22881;SDS011;11608;50.894;5.296;2023-10-19T10:48:28;22.42;;;20.13;;
22881;SDS011;11608;50.894;5.296;2023-10-19T10:50:55;24.58;;;21.17;;
22881;SDS011;11608;50.894;5.296;2023-10-19T10:53:22;24.50;;;20.85;;
22881;SDS011;11608;50.894;5.296;2023-10-19T10:55:52;24.63;;;20.20;;
22881;SDS011;11608;50.894;5.296;2023-10-19T10:58:18;22.35;;;20.10;;
22881;SDS011;11608;50.894;5.296;2023-10-19T11:00:45;22.85;;;20.50;;
22881;SDS011;11608;50.894;5.296;2023-10-19T11:03:13;23.23;;;20.80;;
22881;SDS011;11608;50.894;5.296;2023-10-19T11:05:40;23.95;;;21.48;;
22881;SDS011;11608;50.894;5.296;2023-10-19T11:10:40;24.23;;;21.73;;
22881;SDS011;11608;50.894;5.296;2023-10-19T11:13:11;26.10;;;23.40;;
22881;SDS011;11608;50.894;5.296;2023-10-19T11:15:53;24.20;;;22.13;;
22881;SDS011;11608;50.894;5.296;2023-10-19T11:18:34;25.08;;;22.67;;
22881;SDS011;11608;50.894;5.296;2023-10-19T11:21:01;23.17;;;20.90;;
22881;SDS011;11608;50.894;5.296;2023-10-19T11:23:35;27.33;;;21.30;;
22881;SDS011;11608;50.894;5.296;2023-10-19T11:26:02;27.23;;;20.67;;
22881;SDS011;11608;50.894;5.296;2023-10-19T11:28:29;23.15;;;20.70;;
22881;SDS011;11608;50.894;5.296;2023-10-19T11:31:09;21.85;;;19.50;;
22881;SDS011;11608;50.894;5.296;2023-10-19T11:33:35;22.83;;;20.40;;
22881;SDS011;11608;50.894;5.296;2023-10-19T11:36:02;23.02;;;20.98;;
22881;SDS011;11608;50.894;5.296;2023-10-19T11:38:28;24.40;;;22.00;;
22881;SDS011;11608;50.894;5.296;2023-10-19T11:40:54;23.90;;;21.05;;
22881;SDS011;11608;50.894;5.296;2023-10-19T11:43:20;23.95;;;21.90;;
22881;SDS011;11608;50.894;5.296;2023-10-19T11:45:46;23.00;;;20.85;;
22881;SDS011;11608;50.894;5.296;2023-10-19T11:48:12;23.83;;;21.70;;
22881;SDS011;11608;50.894;5.296;2023-10-19T11:50:38;23.70;;;21.50;;
22881;SDS011;11608;50.894;5.296;2023-10-19T11:53:04;23.67;;;21.63;;
22881;SDS011;11608;50.894;5.296;2023-10-19T11:55:30;23.73;;;21.48;;
22881;SDS011;11608;50.894;5.296;2023-10-19T11:57:56;23.50;;;21.45;;
22881;SDS011;11608;50.894;5.296;2023-10-19T12:00:22;23.70;;;21.25;;
22881;SDS011;11608;50.894;5.296;2023-10-19T12:02:58;24.20;;;21.75;;
22881;SDS011;11608;50.894;5.296;2023-10-19T12:05:24;23.98;;;21.58;;
22881;SDS011;11608;50.894;5.296;2023-10-19T12:07:50;23.52;;;21.30;;
22881;SDS011;11608;50.894;5.296;2023-10-19T12:10:17;24.10;;;22.10;;
22881;SDS011;11608;50.894;5.296;2023-10-19T12:12:45;24.75;;;22.38;;
22881;SDS011;11608;50.894;5.296;2023-10-19T12:15:11;25.40;;;23.05;;
22881;SDS011;11608;50.894;5.296;2023-10-19T12:17:38;25.38;;;22.88;;
22881;SDS011;11608;50.894;5.296;2023-10-19T12:20:04;24.70;;;22.40;;
22881;SDS011;11608;50.894;5.296;2023-10-19T12:22:31;25.08;;;22.98;;
22881;SDS011;11608;50.894;5.296;2023-10-19T12:25:03;25.08;;;22.83;;
22881;SDS011;11608;50.894;5.296;2023-10-19T12:27:30;24.60;;;22.48;;
22881;SDS011;11608;50.894;5.296;2023-10-19T12:29:56;24.83;;;22.63;;
22881;SDS011;11608;50.894;5.296;2023-10-19T12:32:24;24.98;;;22.77;;
22881;SDS011;11608;50.894;5.296;2023-10-19T12:34:51;25.08;;;22.90;;
22881;SDS011;11608;50.894;5.296;2023-10-19T12:37:22;24.63;;;22.52;;
22881;SDS011;11608;50.894;5.296;2023-10-19T12:39:49;25.73;;;23.13;;
22881;SDS011;11608;50.894;5.296;2023-10-19T12:42:16;25.73;;;23.33;;
22881;SDS011;11608;50.894;5.296;2023-10-19T12:44:42;24.98;;;23.08;;
22881;SDS011;11608;50.894;5.296;2023-10-19T12:47:09;24.63;;;22.83;;
22881;SDS011;11608;50.894;5.296;2023-10-19T12:49:38;25.55;;;23.45;;
22881;SDS011;11608;50.894;5.296;2023-10-19T12:52:04;24.67;;;22.42;;
22881;SDS011;11608;50.894;5.296;2023-10-19T12:54:32;26.13;;;23.95;;
22881;SDS011;11608;50.894;5.296;2023-10-19T12:57:00;24.55;;;22.52;;
22881;SDS011;11608;50.894;5.296;2023-10-19T12:59:26;25.15;;;23.02;;
22881;SDS011;11608;50.894;5.296;2023-10-19T13:01:52;25.15;;;23.05;;
22881;SDS011;11608;50.894;5.296;2023-10-19T13:04:23;25.30;;;23.23;;
22881;SDS011;11608;50.894;5.296;2023-10-19T13:06:49;26.27;;;23.67;;
22881;SDS011;11608;50.894;5.296;2023-10-19T13:09:16;24.58;;;22.48;;
22881;SDS011;11608;50.894;5.296;2023-10-19T13:11:47;24.15;;;21.98;;
22881;SDS011;11608;50.894;5.296;2023-10-19T13:14:17;24.52;;;22.35;;
22881;SDS011;11608;50.894;5.296;2023-10-19T13:16:43;25.27;;;22.92;;
22881;SDS011;11608;50.894;5.296;2023-10-19T13:19:09;25.42;;;23.25;;
22881;SDS011;11608;50.894;5.296;2023-10-19T13:21:40;25.88;;;23.65;;
22881;SDS011;11608;50.894;5.296;2023-10-19T13:24:09;24.83;;;22.83;;
22881;SDS011;11608;50.894;5.296;2023-10-19T13:26:36;26.60;;;24.23;;
22881;SDS011;11608;50.894;5.296;2023-10-19T13:29:05;24.20;;;22.13;;
22881;SDS011;11608;50.894;5.296;2023-10-19T13:31:31;25.35;;;23.08;;
22881;SDS011;11608;50.894;5.296;2023-10-19T13:33:57;24.95;;;22.83;;
22881;SDS011;11608;50.894;5.296;2023-10-19T13:36:24;27.00;;;24.50;;
22881;SDS011;11608;50.894;5.296;2023-10-19T13:38:50;25.52;;;23.05;;
22881;SDS011;11608;50.894;5.296;2023-10-19T13:41:16;25.58;;;23.17;;
22881;SDS011;11608;50.894;5.296;2023-10-19T13:43:43;24.75;;;22.55;;
22881;SDS011;11608;50.894;5.296;2023-10-19T13:46:09;25.60;;;23.38;;
22881;SDS011;11608;50.894;5.296;2023-10-19T13:48:35;24.80;;;22.63;;
22881;SDS011;11608;50.894;5.296;2023-10-19T13:51:04;25.63;;;23.33;;
22881;SDS011;11608;50.894;5.296;2023-10-19T13:53:40;26.30;;;23.65;;
22881;SDS011;11608;50.894;5.296;2023-10-19T13:56:09;25.95;;;23.60;;
22881;SDS011;11608;50.894;5.296;2023-10-19T13:58:36;25.42;;;23.23;;
22881;SDS011;11608;50.894;5.296;2023-10-19T14:01:02;25.98;;;23.52;;
22881;SDS011;11608;50.894;5.296;2023-10-19T14:03:28;25.23;;;22.77;;
22881;SDS011;11608;50.894;5.296;2023-10-19T14:05:55;25.05;;;23.00;;
22881;SDS011;11608;50.894;5.296;2023-10-19T14:08:22;23.73;;;21.60;;
22881;SDS011;11608;50.894;5.296;2023-10-19T14:10:48;25.20;;;22.85;;
22881;SDS011;11608;50.894;5.296;2023-10-19T14:13:14;24.73;;;22.48;;
22881;SDS011;11608;50.894;5.296;2023-10-19T14:15:40;23.50;;;21.80;;
22881;SDS011;11608;50.894;5.296;2023-10-19T14:18:07;23.80;;;21.88;;
22881;SDS011;11608;50.894;5.296;2023-10-19T14:20:33;24.50;;;22.45;;
22881;SDS011;11608;50.894;5.296;2023-10-19T14:23:00;24.13;;;22.25;;
22881;SDS011;11608;50.894;5.296;2023-10-19T14:25:29;23.92;;;21.92;;
22881;SDS011;11608;50.894;5.296;2023-10-19T14:27:55;23.60;;;21.67;;
22881;SDS011;11608;50.894;5.296;2023-10-19T14:30:28;24.75;;;22.55;;
22881;SDS011;11608;50.894;5.296;2023-10-19T14:32:54;24.35;;;22.50;;
22881;SDS011;11608;50.894;5.296;2023-10-19T14:35:22;25.15;;;23.15;;
22881;SDS011;11608;50.894;5.296;2023-10-19T14:37:49;24.15;;;22.25;;
22881;SDS011;11608;50.894;5.296;2023-10-19T14:40:19;24.17;;;22.00;;
22881;SDS011;11608;50.894;5.296;2023-10-19T14:42:46;23.90;;;21.98;;